Ruza, Russia
Current Conditions -  °F | °C
As of 6:00 AM on Tuesday 27 Jan 2015 (Local Time) from UUWW Reporting Station
Overcast Overcast  
Wind Chill:   Ceiling: 700
Heat Index: 14°   Visibility: 6mi
Dew Point: 12°   Wind: 4mph
Humidity: 93%   Direction: 140°SE
Pressure: 30.12"   Gusts: NA
Location:  55.7°N, 36.2°E
Report Text: UUWW 270300Z 14002MPS 9000 OVC007 M10/M11 Q1020 24420552 NOSIG
Loading
Personal Weather Stations






























Interactive Weather Map New forecast layout! Learn more

10-Day Weather Forecast

Advertisements
Track Severe Weather on mobile